Time;durP1;ratioP1;P1;durP2;ratioP2;P2;SDS_P1;SDS_P2;PMS_P1;PMS_P2;Temp;Humidity;BMP_temperature;BMP_pressure;BME280_temperature;BME280_humidity;BME280_pressure;Samples;Min_cycle;Max_cycle;Signal;HPM_P1;HPM_P2
2024/01/13 00:01:42;;;;;;;130.45;32.92;;;;;;;;;;5029603;28;20028;-69
2024/01/13 00:04:07;;;;;;;125.70;32.70;;;;;;;;;;5030029;28;20353;-69
2024/01/13 00:06:32;;;;;;;120.18;33.13;;;;;;;;;;5031159;28;20638;-69
2024/01/13 00:08:58;;;;;;;111.40;30.80;;;;;;;;;;5030150;28;20013;-69
2024/01/13 00:11:23;;;;;;;117.95;33.00;;;;;;;;;;5031053;28;20028;-69
2024/01/13 00:13:48;;;;;;;109.30;33.75;;;;;;;;;;5030581;28;20539;-69
2024/01/13 00:16:13;;;;;;;109.22;29.13;;;;;;;;;;5030759;28;20032;-69
2024/01/13 00:18:38;;;;;;;122.85;34.03;;;;;;;;;;5030271;28;20400;-69
2024/01/13 00:21:04;;;;;;;88.80;25.77;;;;;;;;;;5030537;28;20021;-69
2024/01/13 00:23:29;;;;;;;108.07;30.08;;;;;;;;;;5030627;28;20036;-69
2024/01/13 00:25:54;;;;;;;114.13;30.55;;;;;;;;;;5034614;28;20018;-69
2024/01/13 00:28:19;;;;;;;88.43;26.05;;;;;;;;;;5030279;28;20052;-69
2024/01/13 00:30:44;;;;;;;94.80;26.23;;;;;;;;;;5030449;28;20022;-69
2024/01/13 00:33:10;;;;;;;115.32;34.08;;;;;;;;;;5030658;28;20298;-69
2024/01/13 00:35:36;;;;;;;131.73;33.20;;;;;;;;;;5030480;28;20391;-69
2024/01/13 00:38:01;;;;;;;95.25;25.52;;;;;;;;;;5030254;28;20791;-69
2024/01/13 00:40:26;;;;;;;139.98;33.97;;;;;;;;;;5028875;28;20021;-69
2024/01/13 00:42:51;;;;;;;108.77;33.43;;;;;;;;;;5029583;28;20029;-69
2024/01/13 00:45:17;;;;;;;122.75;33.65;;;;;;;;;;5028443;28;20264;-69
2024/01/13 00:47:42;;;;;;;127.78;33.53;;;;;;;;;;5029702;28;20064;-69
2024/01/13 00:50:08;;;;;;;127.90;33.90;;;;;;;;;;5029016;28;20070;-69
2024/01/13 00:52:33;;;;;;;115.63;33.08;;;;;;;;;;5030186;28;20163;-69
2024/01/13 00:54:58;;;;;;;118.90;33.53;;;;;;;;;;5029927;28;20292;-69
2024/01/13 00:57:24;;;;;;;93.97;27.80;;;;;;;;;;5029870;28;20029;-69
2024/01/13 00:59:49;;;;;;;113.93;32.55;;;;;;;;;;5023881;28;20130;-69
2024/01/13 01:02:14;;;;;;;111.43;31.92;;;;;;;;;;5029957;28;20044;-69
2024/01/13 01:04:39;;;;;;;112.55;32.60;;;;;;;;;;5029933;28;20017;-69
2024/01/13 01:07:04;;;;;;;121.27;33.97;;;;;;;;;;5029680;28;20017;-69
2024/01/13 01:09:29;;;;;;;108.93;31.20;;;;;;;;;;5028993;28;20365;-69
2024/01/13 01:11:55;;;;;;;120.73;31.87;;;;;;;;;;5029788;28;20273;-69
2024/01/13 01:14:20;;;;;;;129.97;33.23;;;;;;;;;;5029708;28;20367;-69
2024/01/13 01:16:45;;;;;;;116.30;32.80;;;;;;;;;;5027724;28;20260;-69
2024/01/13 01:19:10;;;;;;;116.72;33.15;;;;;;;;;;5029217;28;20029;-69
2024/01/13 01:21:35;;;;;;;137.07;34.90;;;;;;;;;;5029980;28;20025;-69
2024/01/13 01:24:01;;;;;;;110.53;33.60;;;;;;;;;;5031832;28;20057;-69
2024/01/13 01:26:26;;;;;;;118.80;32.03;;;;;;;;;;5029605;28;20306;-69
2024/01/13 01:28:51;;;;;;;120.43;33.85;;;;;;;;;;5028367;28;20035;-69
2024/01/13 01:31:16;;;;;;;115.75;33.13;;;;;;;;;;5029247;28;20370;-69
2024/01/13 01:33:42;;;;;;;133.07;32.60;;;;;;;;;;5029299;28;20388;-69
2024/01/13 01:36:08;;;;;;;116.93;33.22;;;;;;;;;;5026659;28;20026;-69
2024/01/13 01:38:33;;;;;;;118.25;32.53;;;;;;;;;;5032735;28;20024;-69
2024/01/13 01:40:58;;;;;;;128.48;31.17;;;;;;;;;;5029270;28;20034;-69
2024/01/13 01:43:23;;;;;;;108.50;32.20;;;;;;;;;;5029314;28;20021;-69
2024/01/13 01:45:50;;;;;;;121.95;33.28;;;;;;;;;;5029470;28;20711;-69
2024/01/13 01:48:16;;;;;;;110.75;30.85;;;;;;;;;;5028478;28;20033;-69
2024/01/13 01:50:41;;;;;;;103.40;31.02;;;;;;;;;;5028680;28;20396;-69
2024/01/13 01:53:06;;;;;;;123.35;32.83;;;;;;;;;;5028688;28;20075;-69
2024/01/13 01:55:31;;;;;;;107.83;30.70;;;;;;;;;;5029309;28;20029;-69
2024/01/13 01:57:58;;;;;;;125.85;31.35;;;;;;;;;;5028729;28;20763;-69
2024/01/13 02:00:24;;;;;;;119.65;31.25;;;;;;;;;;5028406;28;20041;-69
2024/01/13 02:02:49;;;;;;;114.50;31.95;;;;;;;;;;5028740;28;20029;-69
2024/01/13 02:05:15;;;;;;;118.80;32.30;;;;;;;;;;5028360;28;20288;-69
2024/01/13 02:07:40;;;;;;;119.63;32.13;;;;;;;;;;5028520;28;20392;-69
2024/01/13 02:10:06;;;;;;;115.18;32.45;;;;;;;;;;5026574;28;20014;-69
2024/01/13 02:12:31;;;;;;;125.18;32.72;;;;;;;;;;5029337;28;20476;-69
2024/01/13 02:14:56;;;;;;;107.75;33.72;;;;;;;;;;5028957;28;20034;-69
2024/01/13 02:17:24;;;;;;;105.28;30.95;;;;;;;;;;5027656;28;20025;-69
2024/01/13 02:19:50;;;;;;;109.85;31.20;;;;;;;;;;5028882;28;20029;-69
2024/01/13 02:22:15;;;;;;;114.30;31.42;;;;;;;;;;5028762;28;20029;-69
2024/01/13 02:24:40;;;;;;;104.32;29.52;;;;;;;;;;5028634;28;20018;-69
2024/01/13 02:27:05;;;;;;;101.83;30.23;;;;;;;;;;5028193;28;20472;-69
2024/01/13 02:29:30;;;;;;;91.68;27.00;;;;;;;;;;5028830;28;20335;-69
2024/01/13 02:31:55;;;;;;;75.87;24.17;;;;;;;;;;5028841;28;20211;-69
2024/01/13 02:34:21;;;;;;;107.45;29.52;;;;;;;;;;5028142;28;20707;-69
2024/01/13 02:36:46;;;;;;;107.10;33.55;;;;;;;;;;5029376;28;20056;-69
2024/01/13 02:39:11;;;;;;;115.38;32.28;;;;;;;;;;5028020;28;20031;-69
2024/01/13 02:41:36;;;;;;;122.22;33.05;;;;;;;;;;5029027;28;20026;-69
2024/01/13 02:44:01;;;;;;;80.88;25.95;;;;;;;;;;5028521;28;20408;-69
2024/01/13 02:46:26;;;;;;;85.38;28.05;;;;;;;;;;5022928;28;20032;-69
2024/01/13 02:48:54;;;;;;;108.73;28.87;;;;;;;;;;5028841;28;20028;-69
2024/01/13 02:51:19;;;;;;;98.45;28.40;;;;;;;;;;5028568;28;20258;-69
2024/01/13 02:53:45;;;;;;;95.78;28.90;;;;;;;;;;5028128;28;20033;-69
2024/01/13 02:56:10;;;;;;;108.63;31.00;;;;;;;;;;5026795;28;20212;-69
2024/01/13 02:58:35;;;;;;;95.68;29.30;;;;;;;;;;5027054;28;20021;-69
2024/01/13 03:01:06;;;;;;;116.22;33.00;;;;;;;;;;5028306;28;20033;-69
2024/01/13 03:03:31;;;;;;;107.63;31.98;;;;;;;;;;5023403;28;20010;-69
2024/01/13 03:05:56;;;;;;;120.13;33.85;;;;;;;;;;5033239;28;20032;-69
2024/01/13 03:08:22;;;;;;;107.70;32.50;;;;;;;;;;5031193;28;20080;-69
2024/01/13 03:10:47;;;;;;;104.82;27.38;;;;;;;;;;5031605;28;20275;-69
2024/01/13 03:13:12;;;;;;;105.57;27.63;;;;;;;;;;5031954;28;20033;-69
2024/01/13 03:15:37;;;;;;;106.87;29.13;;;;;;;;;;5031440;28;20260;-69
2024/01/13 03:18:02;;;;;;;113.03;31.40;;;;;;;;;;5031143;28;20269;-69
2024/01/13 03:20:28;;;;;;;99.20;29.50;;;;;;;;;;5031648;28;20280;-69
2024/01/13 03:22:53;;;;;;;103.77;31.23;;;;;;;;;;5031882;28;20153;-69
2024/01/13 03:25:18;;;;;;;100.72;30.42;;;;;;;;;;5030602;28;20283;-69
2024/01/13 03:27:43;;;;;;;106.47;30.15;;;;;;;;;;5030793;28;20037;-69
2024/01/13 03:30:09;;;;;;;102.40;30.97;;;;;;;;;;5031609;28;20018;-69
2024/01/13 03:32:34;;;;;;;104.00;30.13;;;;;;;;;;5035927;28;20359;-69
2024/01/13 03:34:59;;;;;;;113.78;31.48;;;;;;;;;;5030784;28;20061;-69
2024/01/13 03:37:24;;;;;;;98.80;29.83;;;;;;;;;;5029977;28;20036;-69
2024/01/13 03:39:50;;;;;;;103.93;28.85;;;;;;;;;;5031075;28;20739;-69
2024/01/13 03:42:15;;;;;;;113.45;29.92;;;;;;;;;;5031337;28;20033;-69
2024/01/13 03:44:40;;;;;;;106.55;29.83;;;;;;;;;;5030797;28;20020;-69
2024/01/13 03:47:05;;;;;;;101.50;30.02;;;;;;;;;;5030537;28;20107;-69
2024/01/13 03:49:31;;;;;;;89.07;27.38;;;;;;;;;;5030950;28;20056;-69
2024/01/13 03:51:56;;;;;;;101.25;29.08;;;;;;;;;;5031475;28;20400;-69
2024/01/13 03:54:21;;;;;;;92.73;28.40;;;;;;;;;;5030914;28;20079;-69
2024/01/13 03:56:47;;;;;;;91.18;28.35;;;;;;;;;;5030675;28;20705;-69
2024/01/13 03:59:14;;;;;;;94.07;28.52;;;;;;;;;;5031803;28;20029;-69
2024/01/13 04:01:40;;;;;;;92.03;27.63;;;;;;;;;;5034375;28;20029;-69
2024/01/13 04:04:05;;;;;;;104.22;29.17;;;;;;;;;;5030734;28;20069;-69
2024/01/13 04:06:30;;;;;;;92.18;28.40;;;;;;;;;;5029919;28;20029;-69
2024/01/13 04:08:56;;;;;;;123.95;31.52;;;;;;;;;;5029911;28;20032;-69
2024/01/13 04:11:21;;;;;;;100.13;28.20;;;;;;;;;;5030423;28;20031;-69
2024/01/13 04:13:46;;;;;;;93.30;28.20;;;;;;;;;;5030184;28;20731;-69
2024/01/13 04:16:12;;;;;;;107.00;31.00;;;;;;;;;;5028765;28;20056;-69
2024/01/13 04:18:38;;;;;;;99.90;28.40;;;;;;;;;;5030204;28;20338;-69
2024/01/13 04:21:03;;;;;;;101.63;34.05;;;;;;;;;;5029010;28;20017;-69
2024/01/13 04:23:28;;;;;;;88.47;28.15;;;;;;;;;;5030557;28;20484;-69
2024/01/13 04:25:53;;;;;;;99.35;29.33;;;;;;;;;;5030019;28;20469;-69
2024/01/13 04:28:18;;;;;;;96.40;27.80;;;;;;;;;;5030091;28;20038;-69
2024/01/13 04:30:44;;;;;;;94.93;29.85;;;;;;;;;;5031993;28;20260;-69
2024/01/13 04:33:09;;;;;;;101.50;28.25;;;;;;;;;;5030535;28;20164;-69
2024/01/13 04:35:34;;;;;;;92.03;26.50;;;;;;;;;;5029393;28;20033;-69
2024/01/13 04:38:00;;;;;;;93.37;29.57;;;;;;;;;;5029647;28;20789;-69
2024/01/13 04:40:25;;;;;;;102.43;28.08;;;;;;;;;;5030139;28;20321;-69
2024/01/13 04:42:50;;;;;;;100.05;28.02;;;;;;;;;;5030365;28;20022;-69
2024/01/13 04:45:15;;;;;;;100.28;29.25;;;;;;;;;;5029994;28;20095;-69
2024/01/13 04:47:41;;;;;;;89.70;26.52;;;;;;;;;;5030528;28;20121;-69
2024/01/13 04:50:06;;;;;;;91.28;27.45;;;;;;;;;;5032146;28;20010;-69
2024/01/13 04:52:31;;;;;;;77.25;23.27;;;;;;;;;;5030220;28;20029;-69
2024/01/13 04:54:56;;;;;;;76.03;25.70;;;;;;;;;;5030058;28;20452;-69
2024/01/13 04:57:22;;;;;;;30.25;10.95;;;;;;;;;;5029170;28;20037;-69
2024/01/13 04:59:47;;;;;;;62.58;15.02;;;;;;;;;;5029878;28;20032;-69
2024/01/13 05:02:12;;;;;;;85.75;26.20;;;;;;;;;;5030047;28;20033;-69
2024/01/13 05:04:39;;;;;;;89.65;26.35;;;;;;;;;;5029741;28;20021;-69
2024/01/13 05:07:04;;;;;;;102.70;28.17;;;;;;;;;;5028155;28;20018;-69
2024/01/13 05:09:29;;;;;;;72.97;25.63;;;;;;;;;;5029321;28;20067;-69
2024/01/13 05:11:54;;;;;;;93.60;27.37;;;;;;;;;;5029979;28;20079;-69
2024/01/13 05:14:19;;;;;;;95.38;26.92;;;;;;;;;;5031526;28;20817;-69
2024/01/13 05:16:45;;;;;;;78.80;24.77;;;;;;;;;;5028994;28;20037;-69
2024/01/13 05:19:10;;;;;;;87.43;25.40;;;;;;;;;;5028990;28;20401;-69
2024/01/13 05:21:35;;;;;;;93.32;26.65;;;;;;;;;;5029279;28;20239;-69
2024/01/13 05:24:00;;;;;;;99.72;26.23;;;;;;;;;;5031357;28;20384;-69
2024/01/13 05:26:25;;;;;;;71.35;24.55;;;;;;;;;;5028857;28;20465;-69
2024/01/13 05:28:51;;;;;;;72.93;25.70;;;;;;;;;;5028720;28;20104;-69
2024/01/13 05:31:16;;;;;;;66.53;21.38;;;;;;;;;;5029373;28;20041;-69
2024/01/13 05:33:41;;;;;;;74.10;22.70;;;;;;;;;;5029507;28;20622;-69
2024/01/13 05:36:06;;;;;;;66.88;21.15;;;;;;;;;;5027297;28;20388;-69
2024/01/13 05:38:31;;;;;;;64.47;21.08;;;;;;;;;;5029023;28;20076;-69
2024/01/13 05:40:57;;;;;;;73.38;24.27;;;;;;;;;;5029565;28;20048;-69
2024/01/13 05:43:22;;;;;;;68.57;22.83;;;;;;;;;;5029538;28;20028;-69
2024/01/13 05:45:47;;;;;;;83.15;23.63;;;;;;;;;;5028338;28;20014;-69
2024/01/13 05:48:12;;;;;;;51.20;17.77;;;;;;;;;;5029598;28;20025;-69
2024/01/13 05:50:37;;;;;;;58.10;21.20;;;;;;;;;;5028566;28;20554;-69
2024/01/13 05:53:03;;;;;;;56.05;21.02;;;;;;;;;;5029363;28;20025;-69
2024/01/13 05:55:28;;;;;;;66.22;18.85;;;;;;;;;;5030087;28;20025;-69
2024/01/13 05:57:53;;;;;;;63.70;20.80;;;;;;;;;;5029083;28;20034;-69
2024/01/13 06:00:18;;;;;;;61.65;20.70;;;;;;;;;;5028864;28;20256;-69
2024/01/13 06:02:44;;;;;;;72.47;19.67;;;;;;;;;;5028978;28;20049;-69
2024/01/13 06:05:09;;;;;;;66.57;21.80;;;;;;;;;;5027918;28;20025;-69
2024/01/13 06:07:35;;;;;;;61.67;19.70;;;;;;;;;;5029002;28;20083;-69
2024/01/13 06:10:00;;;;;;;51.65;15.88;;;;;;;;;;5024327;28;20021;-69
2024/01/13 06:12:27;;;;;;;59.42;22.52;;;;;;;;;;5028165;28;20014;-69
2024/01/13 06:14:52;;;;;;;65.65;21.42;;;;;;;;;;5024444;28;20408;-69
2024/01/13 06:17:17;;;;;;;63.75;20.00;;;;;;;;;;5028476;28;20034;-69
2024/01/13 06:19:43;;;;;;;66.47;21.98;;;;;;;;;;5028537;28;20060;-69
2024/01/13 06:22:09;;;;;;;55.97;20.23;;;;;;;;;;5028843;28;20407;-69
2024/01/13 06:24:34;;;;;;;57.28;19.63;;;;;;;;;;5028219;28;20018;-69
2024/01/13 06:26:59;;;;;;;52.92;18.75;;;;;;;;;;5029169;28;20049;-69
2024/01/13 06:29:25;;;;;;;53.50;19.08;;;;;;;;;;5024308;28;20460;-69
2024/01/13 06:31:50;;;;;;;55.75;20.33;;;;;;;;;;5027531;28;20144;-69
2024/01/13 06:34:15;;;;;;;57.70;21.73;;;;;;;;;;5030237;28;20040;-69
2024/01/13 06:36:41;;;;;;;53.33;17.88;;;;;;;;;;5028640;28;20036;-69
2024/01/13 06:39:06;;;;;;;50.38;18.30;;;;;;;;;;5030106;28;20111;-69
2024/01/13 06:41:31;;;;;;;60.05;20.42;;;;;;;;;;5033781;28;20038;-69
2024/01/13 06:43:56;;;;;;;57.50;18.65;;;;;;;;;;5033281;28;20033;-69
2024/01/13 06:46:21;;;;;;;56.72;21.50;;;;;;;;;;5030298;28;20036;-69
2024/01/13 06:48:47;;;;;;;66.53;21.73;;;;;;;;;;5031958;28;20027;-69
2024/01/13 06:51:13;;;;;;;61.55;20.67;;;;;;;;;;5035765;28;20025;-69
2024/01/13 06:53:38;;;;;;;64.90;22.73;;;;;;;;;;5031771;28;20013;-69
2024/01/13 06:56:03;;;;;;;65.97;24.05;;;;;;;;;;5028681;28;20025;-69
2024/01/13 06:58:28;;;;;;;65.95;24.50;;;;;;;;;;5031934;28;20014;-69
2024/01/13 07:00:54;;;;;;;69.38;23.83;;;;;;;;;;5039939;28;20028;-69
2024/01/13 07:03:19;;;;;;;63.80;22.48;;;;;;;;;;5034820;28;20474;-69
2024/01/13 07:05:44;;;;;;;73.57;25.50;;;;;;;;;;5029308;28;20029;-69
2024/01/13 07:08:09;;;;;;;71.45;23.58;;;;;;;;;;5029378;28;20048;-69
2024/01/13 07:10:34;;;;;;;61.60;23.40;;;;;;;;;;5032613;28;20017;-69
2024/01/13 07:13:00;;;;;;;69.33;23.93;;;;;;;;;;5034888;28;20059;-69
2024/01/13 07:15:25;;;;;;;61.70;22.65;;;;;;;;;;5032194;28;20278;-69
2024/01/13 07:17:51;;;;;;;52.93;18.00;;;;;;;;;;5029724;28;20083;-69
2024/01/13 07:20:16;;;;;;;54.38;18.08;;;;;;;;;;5032157;28;20256;-69
2024/01/13 07:22:41;;;;;;;25.17;9.20;;;;;;;;;;5031969;28;20111;-69
2024/01/13 07:25:07;;;;;;;62.30;22.08;;;;;;;;;;5032454;28;20252;-69
2024/01/13 07:27:32;;;;;;;57.13;20.77;;;;;;;;;;5032105;28;20190;-69
2024/01/13 07:30:01;;;;;;;60.83;20.23;;;;;;;;;;5034039;28;20013;-69
2024/01/13 07:32:26;;;;;;;47.40;18.10;;;;;;;;;;5032359;28;20461;-69
2024/01/13 07:34:51;;;;;;;65.63;22.33;;;;;;;;;;5033078;28;20064;-69
2024/01/13 07:37:16;;;;;;;55.00;21.30;;;;;;;;;;5029576;28;20021;-69
2024/01/13 07:39:43;;;;;;;55.63;20.35;;;;;;;;;;5031311;28;20021;-69
2024/01/13 07:42:08;;;;;;;57.28;20.35;;;;;;;;;;5034451;28;20436;-69
2024/01/13 07:44:34;;;;;;;59.70;19.88;;;;;;;;;;5028896;28;20067;-69
2024/01/13 07:47:01;;;;;;;48.42;18.77;;;;;;;;;;5032201;28;20032;-69
2024/01/13 07:49:26;;;;;;;53.85;20.38;;;;;;;;;;5032071;28;20034;-69
2024/01/13 07:51:53;;;;;;;58.53;21.00;;;;;;;;;;5032220;28;20563;-69
2024/01/13 07:54:18;;;;;;;32.10;11.75;;;;;;;;;;5031791;28;20057;-69
2024/01/13 07:56:44;;;;;;;48.08;19.55;;;;;;;;;;5030555;28;20080;-69
2024/01/13 07:59:09;;;;;;;57.63;20.43;;;;;;;;;;5029920;28;20021;-69
2024/01/13 08:01:34;;;;;;;55.90;18.10;;;;;;;;;;5030160;28;20342;-69
2024/01/13 08:03:59;;;;;;;31.88;10.00;;;;;;;;;;5030964;28;20722;-69
2024/01/13 08:06:24;;;;;;;58.03;20.70;;;;;;;;;;5032921;28;20036;-69
2024/01/13 08:08:50;;;;;;;54.40;18.02;;;;;;;;;;5030690;28;20252;-69
2024/01/13 08:11:15;;;;;;;10.48;4.43;;;;;;;;;;5029744;28;20040;-69
2024/01/13 08:13:40;;;;;;;30.55;10.63;;;;;;;;;;5030702;28;20048;-69
2024/01/13 08:16:05;;;;;;;52.10;21.05;;;;;;;;;;5036848;28;20029;-69
2024/01/13 08:18:31;;;;;;;62.00;22.38;;;;;;;;;;5031287;28;20527;-69
2024/01/13 08:20:56;;;;;;;49.47;20.17;;;;;;;;;;5028546;28;20075;-69
2024/01/13 08:23:21;;;;;;;51.47;21.30;;;;;;;;;;5029469;28;20118;-69
2024/01/13 08:25:46;;;;;;;55.35;21.33;;;;;;;;;;5027981;28;20472;-69
2024/01/13 08:28:11;;;;;;;58.20;22.63;;;;;;;;;;5030922;28;20040;-69
2024/01/13 08:30:37;;;;;;;56.88;23.50;;;;;;;;;;5030027;28;20013;-69
2024/01/13 08:33:04;;;;;;;51.13;19.23;;;;;;;;;;5029342;28;20028;-69
2024/01/13 08:35:29;;;;;;;54.90;21.88;;;;;;;;;;5030288;28;20388;-69
2024/01/13 08:37:56;;;;;;;60.63;24.10;;;;;;;;;;5028707;28;20035;-69
2024/01/13 08:40:21;;;;;;;60.45;23.35;;;;;;;;;;5028344;28;20431;-69
2024/01/13 08:42:49;;;;;;;35.65;14.68;;;;;;;;;;5029748;28;20025;-69
2024/01/13 08:45:14;;;;;;;52.53;20.33;;;;;;;;;;5030225;28;20468;-69
2024/01/13 08:47:39;;;;;;;51.45;21.33;;;;;;;;;;5030286;28;20027;-69
2024/01/13 08:50:05;;;;;;;45.70;16.60;;;;;;;;;;5029361;28;20100;-69
2024/01/13 08:52:30;;;;;;;32.28;13.82;;;;;;;;;;5036406;28;20100;-69
2024/01/13 08:54:55;;;;;;;32.23;14.43;;;;;;;;;;5032844;28;20029;-69
2024/01/13 08:57:20;;;;;;;40.77;17.10;;;;;;;;;;5029821;28;20310;-69
2024/01/13 08:59:45;;;;;;;49.07;22.63;;;;;;;;;;5032177;28;20266;-69
2024/01/13 09:02:10;;;;;;;62.50;23.40;;;;;;;;;;5035020;28;20279;-69
2024/01/13 09:04:36;;;;;;;53.05;20.77;;;;;;;;;;5029968;28;20017;-69
2024/01/13 09:07:01;;;;;;;47.97;19.10;;;;;;;;;;5028426;28;20060;-69
2024/01/13 09:09:28;;;;;;;50.50;20.73;;;;;;;;;;5037358;28;20297;-70
2024/01/13 09:11:53;;;;;;;51.22;21.02;;;;;;;;;;5032682;28;20124;-69
2024/01/13 09:14:19;;;;;;;30.55;12.13;;;;;;;;;;5029900;28;20037;-69
2024/01/13 09:16:44;;;;;;;12.10;7.35;;;;;;;;;;5029781;28;20021;-69
2024/01/13 09:19:09;;;;;;;44.50;21.20;;;;;;;;;;5029719;28;20032;-69
2024/01/13 09:21:34;;;;;;;39.22;19.15;;;;;;;;;;5031734;28;20388;-69
2024/01/13 09:24:00;;;;;;;47.13;17.53;;;;;;;;;;5032087;28;20022;-69
2024/01/13 09:26:25;;;;;;;44.38;18.08;;;;;;;;;;5029780;28;20272;-69
2024/01/13 09:28:51;;;;;;;42.85;19.00;;;;;;;;;;5028258;28;20018;-69
2024/01/13 09:31:16;;;;;;;44.70;16.53;;;;;;;;;;5028988;28;20432;-69
2024/01/13 09:33:41;;;;;;;24.33;10.40;;;;;;;;;;5032301;28;20255;-69
2024/01/13 09:36:06;;;;;;;44.97;20.67;;;;;;;;;;5030832;28;20754;-69
2024/01/13 09:38:31;;;;;;;42.92;17.65;;;;;;;;;;5029285;28;20303;-69
2024/01/13 09:40:57;;;;;;;32.85;15.60;;;;;;;;;;5029255;28;20428;-69
2024/01/13 09:43:31;;;;;;;23.77;12.02;;;;;;;;;;5029259;28;20029;-69
2024/01/13 09:45:56;;;;;;;21.50;11.05;;;;;;;;;;5030970;28;20070;-69
2024/01/13 09:48:22;;;;;;;19.35;9.07;;;;;;;;;;5029202;28;20052;-69
2024/01/13 09:50:49;;;;;;;33.55;15.68;;;;;;;;;;5029115;28;20453;-69
2024/01/13 09:53:20;;;;;;;27.58;11.18;;;;;;;;;;5029154;28;20061;-69
2024/01/13 09:55:45;;;;;;;20.55;9.07;;;;;;;;;;5029289;28;20021;-69
2024/01/13 09:58:11;;;;;;;25.17;10.48;;;;;;;;;;5030951;28;20631;-69
2024/01/13 10:00:37;;;;;;;41.85;19.85;;;;;;;;;;5027748;28;20029;-69
2024/01/13 10:03:03;;;;;;;36.22;15.88;;;;;;;;;;5027701;28;20055;-69
2024/01/13 10:05:30;;;;;;;40.67;17.63;;;;;;;;;;5029038;28;20521;-69
2024/01/13 10:07:55;;;;;;;31.35;11.98;;;;;;;;;;5028576;28;20025;-69
2024/01/13 10:10:21;;;;;;;30.00;12.98;;;;;;;;;;5027467;28;20017;-69
2024/01/13 10:12:46;;;;;;;38.53;17.08;;;;;;;;;;5027621;28;20396;-69
2024/01/13 10:15:12;;;;;;;29.35;14.48;;;;;;;;;;5031823;28;20095;-69
2024/01/13 10:17:37;;;;;;;15.73;7.00;;;;;;;;;;5033428;28;20021;-69
2024/01/13 10:20:02;;;;;;;36.05;16.52;;;;;;;;;;5032638;28;20025;-69
2024/01/13 10:22:27;;;;;;;38.45;14.82;;;;;;;;;;5033483;28;20488;-69
2024/01/13 10:24:53;;;;;;;34.70;16.07;;;;;;;;;;5033095;28;20582;-69
2024/01/13 10:27:20;;;;;;;29.98;13.07;;;;;;;;;;5032025;28;20275;-69
2024/01/13 10:29:47;;;;;;;20.33;10.15;;;;;;;;;;5033022;28;20476;-69
2024/01/13 10:32:12;;;;;;;37.65;15.88;;;;;;;;;;5031611;28;20104;-69
2024/01/13 10:34:43;;;;;;;40.08;14.90;;;;;;;;;;5026915;28;20100;-69
2024/01/13 10:37:09;;;;;;;34.75;14.23;;;;;;;;;;5032600;28;20769;-69
2024/01/13 10:39:34;;;;;;;30.58;14.18;;;;;;;;;;5032500;28;20119;-69
2024/01/13 10:42:01;;;;;;;34.08;13.77;;;;;;;;;;5031277;28;20022;-69
2024/01/13 10:44:27;;;;;;;39.15;13.88;;;;;;;;;;5032631;28;20079;-69
2024/01/13 10:46:54;;;;;;;16.45;7.05;;;;;;;;;;5032426;28;20477;-69
2024/01/13 10:49:23;;;;;;;31.23;13.05;;;;;;;;;;5032624;28;20376;-69
2024/01/13 10:51:52;;;;;;;32.78;14.80;;;;;;;;;;5032364;28;20108;-69
2024/01/13 10:54:18;;;;;;;31.37;12.20;;;;;;;;;;5032273;28;20096;-69
2024/01/13 10:56:43;;;;;;;26.83;10.02;;;;;;;;;;5031348;28;20156;-69
2024/01/13 10:59:10;;;;;;;19.85;8.88;;;;;;;;;;5031226;28;20033;-69
2024/01/13 11:01:35;;;;;;;17.73;7.78;;;;;;;;;;5032358;28;20440;-69
2024/01/13 11:04:03;;;;;;;10.40;3.75;;;;;;;;;;5035182;28;20021;-69
2024/01/13 11:06:28;;;;;;;21.33;9.88;;;;;;;;;;5025259;28;20013;-69
2024/01/13 11:08:53;;;;;;;12.23;6.72;;;;;;;;;;5032526;28;20018;-69
2024/01/13 11:11:25;;;;;;;14.37;6.67;;;;;;;;;;5033154;28;20087;-69
2024/01/13 11:13:58;;;;;;;24.25;10.85;;;;;;;;;;5036233;28;20630;-69
2024/01/13 11:16:26;;;;;;;19.08;8.27;;;;;;;;;;5039021;28;20035;-69
2024/01/13 11:18:52;;;;;;;14.85;7.00;;;;;;;;;;5032361;28;20025;-69
2024/01/13 11:21:17;;;;;;;19.02;9.10;;;;;;;;;;5030231;28;20534;-69
2024/01/13 11:23:46;;;;;;;11.43;4.97;;;;;;;;;;5030712;28;20024;-69
2024/01/13 11:26:14;;;;;;;12.20;4.28;;;;;;;;;;5028977;28;20621;-69
2024/01/13 11:28:43;;;;;;;11.50;5.30;;;;;;;;;;5032182;28;20079;-70
2024/01/13 11:31:27;;;;;;;28.55;10.65;;;;;;;;;;5032192;28;20099;-69
2024/01/13 11:33:52;;;;;;;9.25;5.30;;;;;;;;;;5032223;28;20530;-69
2024/01/13 11:36:17;;;;;;;21.00;8.75;;;;;;;;;;5031468;28;20045;-70
2024/01/13 11:38:43;;;;;;;13.93;6.70;;;;;;;;;;5036652;28;20017;-69
2024/01/13 11:41:08;;;;;;;22.83;11.73;;;;;;;;;;5030392;28;20013;-69
2024/01/13 11:43:39;;;;;;;22.20;6.55;;;;;;;;;;5036394;28;20036;-69
2024/01/13 11:46:09;;;;;;;17.20;8.80;;;;;;;;;;5029995;28;20018;-69
2024/01/13 11:48:39;;;;;;;17.95;7.95;;;;;;;;;;5031669;28;20114;-70
2024/01/13 11:51:08;;;;;;;14.55;7.28;;;;;;;;;;5036446;28;20028;-69
2024/01/13 11:53:36;;;;;;;20.73;7.72;;;;;;;;;;5031151;28;20434;-69
2024/01/13 11:56:03;;;;;;;21.40;7.22;;;;;;;;;;5032675;28;20013;-69
2024/01/13 11:58:29;;;;;;;17.50;7.55;;;;;;;;;;5023530;28;20025;-69
2024/01/13 12:00:54;;;;;;;20.45;8.93;;;;;;;;;;5030739;28;20393;-69
2024/01/13 12:03:19;;;;;;;12.02;5.10;;;;;;;;;;5031127;28;20507;-69
2024/01/13 12:05:44;;;;;;;25.35;10.65;;;;;;;;;;5031962;28;20076;-69
2024/01/13 12:08:10;;;;;;;28.67;9.93;;;;;;;;;;5030946;28;20013;-69
2024/01/13 12:10:44;;;;;;;14.80;7.32;;;;;;;;;;5030058;28;20021;-69
2024/01/13 12:13:16;;;;;;;22.42;7.20;;;;;;;;;;5030163;28;20025;-69
2024/01/13 12:15:45;;;;;;;27.08;11.10;;;;;;;;;;5028215;28;20036;-70
2024/01/13 12:18:16;;;;;;;26.85;10.95;;;;;;;;;;5028458;28;20037;-69
2024/01/13 12:20:41;;;;;;;13.18;6.35;;;;;;;;;;5030317;28;20017;-70
2024/01/13 12:23:06;;;;;;;22.33;9.68;;;;;;;;;;5029804;28;20032;-70
2024/01/13 12:25:32;;;;;;;20.73;8.73;;;;;;;;;;5030192;28;20464;-70
2024/01/13 12:27:57;;;;;;;29.55;11.05;;;;;;;;;;5030438;28;20036;-70
2024/01/13 12:30:22;;;;;;;13.32;6.93;;;;;;;;;;5030135;28;20079;-70
2024/01/13 12:32:47;;;;;;;30.15;10.00;;;;;;;;;;5029856;28;20020;-70
2024/01/13 12:35:13;;;;;;;26.15;11.77;;;;;;;;;;5030204;28;20156;-70
2024/01/13 12:37:39;;;;;;;29.13;11.80;;;;;;;;;;5030472;28;20021;-70
2024/01/13 12:40:05;;;;;;;19.60;7.55;;;;;;;;;;5029778;28;20015;-70
2024/01/13 12:42:30;;;;;;;10.93;5.53;;;;;;;;;;5030325;28;20021;-70
2024/01/13 12:44:55;;;;;;;31.88;13.48;;;;;;;;;;5030514;28;20048;-70
2024/01/13 12:47:20;;;;;;;25.33;8.43;;;;;;;;;;5028630;28;20040;-70
2024/01/13 12:49:46;;;;;;;27.73;11.57;;;;;;;;;;5028827;28;20279;-69
2024/01/13 12:52:12;;;;;;;38.40;13.45;;;;;;;;;;5029776;28;20256;-70
2024/01/13 12:54:38;;;;;;;32.00;13.38;;;;;;;;;;5029638;28;20384;-70
2024/01/13 12:57:03;;;;;;;34.35;12.10;;;;;;;;;;5033199;28;20017;-69
2024/01/13 12:59:29;;;;;;;30.00;10.15;;;;;;;;;;5029779;28;20501;-70
2024/01/13 13:01:55;;;;;;;24.38;10.88;;;;;;;;;;5034733;28;20021;-70
2024/01/13 13:04:21;;;;;;;37.80;13.93;;;;;;;;;;5029624;28;20018;-69
2024/01/13 13:06:46;;;;;;;22.60;8.38;;;;;;;;;;5029149;28;20026;-70
2024/01/13 13:09:12;;;;;;;45.40;13.65;;;;;;;;;;5026026;28;20357;-71
2024/01/13 13:11:38;;;;;;;37.17;14.30;;;;;;;;;;5028409;28;20025;-69
2024/01/13 13:14:04;;;;;;;23.13;9.63;;;;;;;;;;5028132;28;20021;-69
2024/01/13 13:16:29;;;;;;;25.95;7.82;;;;;;;;;;5035437;28;20029;-69
2024/01/13 13:18:54;;;;;;;25.65;10.93;;;;;;;;;;5029153;28;20357;-69
2024/01/13 13:21:20;;;;;;;35.95;14.30;;;;;;;;;;5026856;28;20105;-69
2024/01/13 13:23:46;;;;;;;36.72;15.27;;;;;;;;;;5028294;28;20030;-69
2024/01/13 13:26:11;;;;;;;40.10;16.92;;;;;;;;;;5028696;28;20491;-69
2024/01/13 13:28:37;;;;;;;38.95;15.40;;;;;;;;;;5030256;28;20023;-69
2024/01/13 13:31:07;;;;;;;41.95;15.23;;;;;;;;;;5030279;28;20025;-69
2024/01/13 13:33:33;;;;;;;38.03;15.60;;;;;;;;;;5029024;28;20029;-69
2024/01/13 13:35:58;;;;;;;50.53;18.08;;;;;;;;;;5027764;28;20048;-69
2024/01/13 13:38:23;;;;;;;47.28;18.58;;;;;;;;;;5028295;28;20476;-69
2024/01/13 13:40:48;;;;;;;47.78;17.48;;;;;;;;;;5028735;28;20091;-69
2024/01/13 13:43:15;;;;;;;53.75;21.63;;;;;;;;;;5027921;28;20144;-70
2024/01/13 13:45:42;;;;;;;53.92;23.58;;;;;;;;;;5027552;28;20028;-70
2024/01/13 13:48:07;;;;;;;55.97;22.35;;;;;;;;;;5029094;28;20025;-70
2024/01/13 13:50:34;;;;;;;56.13;22.27;;;;;;;;;;5026691;28;20507;-69
2024/01/13 13:53:00;;;;;;;49.22;20.23;;;;;;;;;;5028905;28;20023;-69
2024/01/13 13:55:27;;;;;;;53.42;20.33;;;;;;;;;;5028412;28;20112;-69
2024/01/13 13:57:52;;;;;;;53.67;21.00;;;;;;;;;;5029219;28;20033;-69
2024/01/13 14:00:17;;;;;;;56.55;23.88;;;;;;;;;;5032817;28;20091;-69
2024/01/13 14:02:43;;;;;;;46.45;20.92;;;;;;;;;;5033977;28;20052;-70
2024/01/13 14:05:08;;;;;;;52.87;23.40;;;;;;;;;;5026348;28;20108;-70
2024/01/13 14:07:34;;;;;;;56.03;21.60;;;;;;;;;;5028844;28;20256;-69